Time;durP1;ratioP1;P1;durP2;ratioP2;P2;SDS_P1;SDS_P2;PMS_P1;PMS_P2;Temp;Humidity;BMP_temperature;BMP_pressure;BME280_temperature;BME280_humidity;BME280_pressure;Samples;Min_cycle;Max_cycle;Signal;HPM_P1;HPM_P2
2022/08/17 00:00:41;;;;;;;73.57;41.85;;;;;;;19.34;100.00;101134.13;7381467;19;20002;-79
2022/08/17 00:03:25;;;;;;;73.47;42.70;;;;;;;19.32;100.00;101130.63;7386634;19;20015;-78
2022/08/17 00:06:05;;;;;;;75.35;43.97;;;;;;;19.33;100.00;101132.38;7387698;19;20018;-77
2022/08/17 00:08:39;;;;;;;67.70;38.95;;;;;;;19.33;100.00;101125.28;7387170;19;20438;-78
2022/08/17 00:11:09;;;;;;;;;;;;;;;19.34;100.00;101131.47;7389397;19;20019;-78
2022/08/17 00:13:43;;;;;;;71.22;41.00;;;;;;;19.34;100.00;101123.50;7382195;19;19911;-78
2022/08/17 00:16:14;;;;;;;;;;;;;;;19.38;100.00;101119.88;7387750;19;20370;-77
2022/08/17 00:18:49;;;;;;;79.10;43.20;;;;;;;19.40;100.00;101124.25;7381377;19;20020;-76
2022/08/17 00:21:49;;;;;;;86.82;47.25;;;;;;;19.39;100.00;101126.94;7391035;19;20058;-76
2022/08/17 00:24:39;;;;;;;84.65;47.28;;;;;;;19.41;100.00;101114.50;7395077;19;20010;-77
2022/08/17 00:27:09;;;;;;;84.50;47.83;;;;;;;19.41;100.00;101117.16;7396413;19;20018;-76
2022/08/17 00:29:39;;;;;;;84.80;46.90;;;;;;;19.41;100.00;101119.81;7396809;19;20026;-76
2022/08/17 00:32:11;;;;;;;87.07;45.83;;;;;;;19.45;100.00;101113.53;7394433;19;20047;-78
2022/08/17 00:35:08;;;;;;;81.97;45.90;;;;;;;19.47;100.00;101109.94;7390179;19;20019;-77
2022/08/17 00:37:42;;;;;;;86.60;45.17;;;;;;;19.52;100.00;101120.53;7392207;19;20010;-78
2022/08/17 00:40:15;;;;;;;86.10;48.28;;;;;;;19.55;100.00;101115.16;7393893;19;20027;-77
2022/08/17 00:42:49;;;;;;;90.95;47.38;;;;;;;19.55;100.00;101120.47;7392661;19;20007;-78
2022/08/17 00:45:22;;;;;;;74.93;44.25;;;;;;;19.52;100.00;101113.41;7383101;19;20018;-79
2022/08/17 00:47:51;;;;;;;94.75;52.47;;;;;;;19.43;100.00;101100.25;7383661;19;20034;-78
2022/08/17 00:50:24;;;;;;;99.28;51.53;;;;;;;19.42;100.00;101114.47;7382853;19;20045;-79
2022/08/17 00:52:57;;;;;;;100.47;54.92;;;;;;;19.41;100.00;101104.72;7374713;19;20022;-79
2022/08/17 00:55:37;;;;;;;91.30;50.63;;;;;;;19.43;100.00;101105.59;7380684;19;20014;-79
2022/08/17 00:58:08;;;;;;;104.20;56.22;;;;;;;19.44;100.00;101096.69;7382344;19;20479;-79
2022/08/17 01:00:43;;;;;;;101.18;54.58;;;;;;;19.40;100.00;101099.44;7381126;19;20321;-79
2022/08/17 01:03:18;;;;;;;102.13;53.13;;;;;;;19.45;100.00;101092.25;7379068;19;20018;-81
2022/08/17 01:05:56;;;;;;;105.63;56.80;;;;;;;19.44;100.00;101090.50;7380008;19;20018;-80
2022/08/17 01:08:29;;;;;;;103.95;56.35;;;;;;;19.49;100.00;101096.59;7378562;19;20003;-79
2022/08/17 01:11:04;;;;;;;;;;;;;;;19.49;100.00;101100.16;7382180;19;20057;-78
2022/08/17 01:13:35;;;;;;;;;;;;;;;19.52;100.00;101094.81;7380628;19;19914;-80
2022/08/17 01:16:16;;;;;;;98.68;51.10;;;;;;;19.52;100.00;101107.22;7381852;19;19922;-76
2022/08/17 01:18:50;;;;;;;114.38;55.65;;;;;;;19.50;100.00;101106.34;7380095;19;20031;-77
2022/08/17 01:21:29;;;;;;;110.15;55.08;;;;;;;19.47;100.00;101104.63;7376571;19;20011;-77
2022/08/17 01:24:04;;;;;;;111.60;55.75;;;;;;;19.45;100.00;101109.09;7374663;19;20035;-77
2022/08/17 01:26:34;;;;;;;107.93;57.60;;;;;;;19.47;100.00;101117.91;7378722;19;20089;-77
2022/08/17 01:29:07;;;;;;;120.25;59.65;;;;;;;19.47;100.00;101133.00;7379171;19;20010;-78
2022/08/17 01:31:44;;;;;;;110.53;55.95;;;;;;;19.45;100.00;101156.97;7381582;19;20447;-77
2022/08/17 01:34:17;;;;;;;109.88;56.78;;;;;;;19.47;100.00;101196.84;7375655;19;20475;-76
2022/08/17 01:36:50;;;;;;;104.63;56.97;;;;;;;19.44;100.00;101184.47;7378713;19;20138;-77
2022/08/17 01:39:29;;;;;;;115.47;59.08;;;;;;;19.36;100.00;101170.44;7377376;19;20545;-76
2022/08/17 01:42:06;;;;;;;81.50;49.42;;;;;;;19.45;100.00;101185.34;7377184;19;20018;-76
2022/08/17 01:44:39;;;;;;;82.53;46.92;;;;;;;19.38;100.00;101197.88;7380752;19;20081;-77
2022/08/17 01:47:08;;;;;;;69.85;44.45;;;;;;;19.31;100.00;101200.66;7378332;19;20017;-79
2022/08/17 01:49:41;;;;;;;75.45;44.05;;;;;;;19.27;100.00;101197.19;7381416;19;20006;-78
2022/08/17 01:52:13;;;;;;;73.63;45.97;;;;;;;19.26;100.00;101201.63;7381524;19;20010;-78
2022/08/17 01:54:48;;;;;;;76.68;44.08;;;;;;;19.28;100.00;101202.47;7383935;19;20007;-79
2022/08/17 01:57:19;;;;;;;70.88;44.63;;;;;;;19.32;100.00;101197.97;7385850;19;20021;-78
2022/08/17 01:59:51;;;;;;;74.95;46.15;;;;;;;19.27;100.00;101210.47;7385044;19;20384;-79
2022/08/17 02:02:23;;;;;;;65.10;41.85;;;;;;;19.09;100.00;101216.09;7388471;19;20021;-79
2022/08/17 02:05:00;;;;;;;61.92;38.10;;;;;;;18.99;100.00;101215.34;7387211;19;20018;-79
2022/08/17 02:07:30;;;;;;;62.05;40.33;;;;;;;18.89;100.00;101219.06;7389193;19;20002;-76
2022/08/17 02:10:20;;;;;;;64.95;40.55;;;;;;;18.80;100.00;101205.91;7394406;19;20018;-78
2022/08/17 02:12:50;;;;;;;75.35;43.75;;;;;;;18.67;100.00;101196.38;7391057;19;20483;-79
2022/08/17 02:15:21;;;;;;;71.35;44.13;;;;;;;18.53;100.00;101196.53;7385193;19;20046;-77
2022/08/17 02:17:51;;;;;;;79.65;46.25;;;;;;;18.50;100.00;101186.84;7385305;19;20043;-76
2022/08/17 02:20:24;;;;;;;73.28;43.85;;;;;;;18.35;100.00;101173.78;7381191;19;20007;-77
2022/08/17 02:23:13;;;;;;;68.03;42.17;;;;;;;18.14;100.00;101166.09;7387564;19;20011;-77
2022/08/17 02:25:49;;;;;;;71.67;46.47;;;;;;;18.01;100.00;101172.44;7382708;19;20007;-77
2022/08/17 02:28:19;;;;;;;84.72;43.42;;;;;;;17.97;100.00;101179.56;7378102;19;20015;-78
2022/08/17 02:30:49;;;;;;;74.82;40.70;;;;;;;18.01;100.00;101196.31;7372440;19;20027;-77
2022/08/17 02:33:32;;;;;;;72.07;39.17;;;;;;;17.92;100.00;101186.69;7375955;19;20265;-77
2022/08/17 02:36:13;;;;;;;63.55;37.50;;;;;;;17.90;100.00;101176.09;7375306;19;20011;-79
2022/08/17 02:38:45;;;;;;;65.43;38.63;;;;;;;17.95;100.00;101176.03;7373725;19;20023;-78
2022/08/17 02:41:18;;;;;;;64.95;39.33;;;;;;;17.95;100.00;101170.72;7375760;19;20011;-77
2022/08/17 02:43:49;;;;;;;72.63;37.75;;;;;;;17.96;100.00;101164.53;7375942;19;20059;-78
2022/08/17 02:46:19;;;;;;;66.80;37.15;;;;;;;17.98;100.00;101173.34;7370119;19;20479;-79
2022/08/17 02:48:49;;;;;;;60.22;36.92;;;;;;;17.96;100.00;101164.53;7374133;19;20018;-79
2022/08/17 02:51:19;;;;;;;58.85;36.75;;;;;;;17.99;100.00;101175.09;7372929;19;20014;-77
2022/08/17 02:53:49;;;;;;;56.03;32.83;;;;;;;17.96;100.00;101170.72;7370506;19;20959;-80
2022/08/17 02:56:21;;;;;;;50.30;31.77;;;;;;;17.98;100.00;101187.50;7380236;19;20022;-78
2022/08/17 02:58:51;;;;;;;49.87;29.53;;;;;;;18.03;100.00;101183.91;7381824;19;20014;-78
2022/08/17 03:01:21;;;;;;;44.58;28.38;;;;;;;18.05;100.00;101195.38;7380628;19;20006;-78
2022/08/17 03:03:51;;;;;;;41.08;26.95;;;;;;;18.08;100.00;101196.22;7379248;19;20011;-78
2022/08/17 03:06:21;;;;;;;35.63;23.88;;;;;;;18.05;100.00;101192.72;7379536;19;20011;-77
2022/08/17 03:08:51;;;;;;;35.95;22.00;;;;;;;18.04;100.00;101197.16;7380998;19;20036;-78
2022/08/17 03:11:23;;;;;;;32.72;20.63;;;;;;;18.05;100.00;101196.25;7381855;19;20015;-76
2022/08/17 03:13:53;;;;;;;36.10;22.55;;;;;;;18.12;100.00;101181.16;7382576;19;20537;-78
2022/08/17 03:16:23;;;;;;;32.35;21.08;;;;;;;18.16;100.00;101164.28;7382074;19;20419;-79
2022/08/17 03:18:53;;;;;;;32.75;20.48;;;;;;;18.24;100.00;101170.38;7378901;19;20081;-78
2022/08/17 03:21:23;;;;;;;34.28;20.63;;;;;;;18.28;100.00;101162.34;7379839;19;20023;-79
2022/08/17 03:23:53;;;;;;;28.45;19.48;;;;;;;18.28;100.00;101172.09;7380964;19;20011;-78
2022/08/17 03:26:27;;;;;;;27.80;18.55;;;;;;;18.24;100.00;101168.59;7381543;19;20337;-79
2022/08/17 03:28:59;;;;;;;30.67;20.05;;;;;;;18.26;100.00;101179.19;7380177;19;20021;-80
2022/08/17 03:31:30;;;;;;;29.75;19.20;;;;;;;18.25;100.00;101177.44;7383490;19;20026;-78
2022/08/17 03:34:04;;;;;;;24.00;16.73;;;;;;;18.24;100.00;101181.88;7382111;19;20693;-79
2022/08/17 03:36:36;;;;;;;32.20;19.35;;;;;;;18.25;100.00;101185.41;7383177;19;20505;-79
2022/08/17 03:39:06;;;;;;;30.10;18.00;;;;;;;18.22;100.00;101177.47;7380842;19;20007;-78
2022/08/17 03:41:41;;;;;;;29.92;18.10;;;;;;;18.24;100.00;101181.00;7383163;19;20489;-78
2022/08/17 03:44:11;;;;;;;31.85;17.45;;;;;;;18.26;100.00;101187.16;7381481;19;20039;-79
2022/08/17 03:57:38;;;;;;;35.65;22.23;;;;;;;18.26;100.00;101157.97;7386650;19;20491;-78
2022/08/17 04:00:10;;;;;;;34.53;22.30;;;;;;;18.24;100.00;101152.66;7391799;19;20089;-77
2022/08/17 04:02:40;;;;;;;34.42;22.80;;;;;;;18.18;100.00;101139.47;7387215;19;20387;-78
2022/08/17 04:05:10;;;;;;;40.55;22.50;;;;;;;18.21;100.00;101146.53;7391432;19;20015;-78
2022/08/17 04:07:40;;;;;;;37.83;22.65;;;;;;;18.21;100.00;101133.25;7383720;19;20018;-79
2022/08/17 04:10:10;;;;;;;34.88;21.27;;;;;;;18.22;100.00;101132.34;7382186;19;20672;-79
2022/08/17 04:12:49;;;;;;;35.47;21.65;;;;;;;18.26;100.00;101126.09;7378277;19;20047;-78
2022/08/17 04:15:20;;;;;;;36.97;23.08;;;;;;;18.23;100.00;101118.19;7380157;19;20018;-79
2022/08/17 04:17:50;;;;;;;35.03;23.25;;;;;;;18.21;100.00;101122.63;7382215;19;20047;-77
2022/08/17 04:20:23;;;;;;;42.83;25.48;;;;;;;18.22;100.00;101127.03;7381085;19;20023;-77
2022/08/17 04:23:00;;;;;;;39.73;25.30;;;;;;;18.27;100.00;101130.50;7380468;19;20018;-80
2022/08/17 04:25:36;;;;;;;38.78;25.95;;;;;;;18.27;100.00;101127.84;7379320;19;20014;-79
2022/08/17 04:28:10;;;;;;;46.80;26.92;;;;;;;18.29;100.00;101126.06;7376141;19;20070;-77
2022/08/17 04:30:46;;;;;;;42.33;26.73;;;;;;;18.28;100.00;101124.31;7380630;19;20018;-80
2022/08/17 04:33:18;;;;;;;45.97;27.25;;;;;;;18.29;100.00;101132.25;7381544;19;20010;-77
2022/08/17 04:35:50;;;;;;;41.08;27.23;;;;;;;18.31;100.00;101124.25;7380484;19;20617;-77
2022/08/17 04:38:21;;;;;;;49.13;29.75;;;;;;;18.35;100.00;101119.78;7380424;19;20115;-78
2022/08/17 04:43:41;;;;;;;46.25;29.08;;;;;;;18.36;100.00;101121.53;7380663;19;20014;-78
2022/08/17 04:46:16;;;;;;;44.88;28.13;;;;;;;18.33;100.00;101126.91;7382163;19;20078;-74
2022/08/17 04:48:48;;;;;;;50.85;30.45;;;;;;;18.26;100.00;101126.09;7377889;19;20041;-75
2022/08/17 04:51:21;;;;;;;46.10;29.85;;;;;;;18.29;100.00;101126.94;7383654;19;20500;-75
2022/08/17 04:53:53;;;;;;;50.35;30.60;;;;;;;18.27;100.00;101133.16;7375314;19;20017;-76
2022/08/17 04:56:25;;;;;;;53.30;31.20;;;;;;;18.26;100.00;101137.59;7380048;19;20693;-77
2022/08/17 04:59:14;;;;;;;53.57;32.60;;;;;;;18.26;100.00;101132.28;7379253;19;20070;-76
2022/08/17 05:01:46;;;;;;;57.92;32.88;;;;;;;18.28;100.00;101126.94;7382338;19;20002;-76
2022/08/17 05:04:18;;;;;;;55.28;32.95;;;;;;;18.30;100.00;101127.81;7381489;19;20010;-76
2022/08/17 05:07:04;;;;;;;56.55;32.10;;;;;;;18.35;100.00;101125.09;7379922;19;20074;-77
2022/08/17 05:09:36;;;;;;;59.22;34.60;;;;;;;18.32;100.00;101119.81;7375657;19;20039;-79
2022/08/17 05:12:09;;;;;;;61.40;36.00;;;;;;;18.34;100.00;101118.03;7380288;19;20018;-77
2022/08/17 05:14:43;;;;;;;53.88;33.17;;;;;;;18.35;100.00;101120.66;7379166;19;20023;-77
2022/08/17 05:17:12;;;;;;;;;;;;;;;18.38;100.00;101125.94;7381517;19;20014;-77
2022/08/17 05:19:42;;;;;;;58.42;32.70;;;;;;;18.43;100.00;101117.91;7378452;19;20296;-76
2022/08/17 05:22:17;;;;;;;53.13;32.50;;;;;;;18.43;100.00;101124.09;7378532;19;20011;-78
2022/08/17 05:24:47;;;;;;;60.97;35.63;;;;;;;18.44;100.00;101125.84;7382280;19;20053;-79
2022/08/17 05:27:24;;;;;;;55.55;34.20;;;;;;;18.49;100.00;101121.34;7378735;19;20041;-76
2022/08/17 05:30:04;;;;;;;55.65;33.88;;;;;;;18.47;100.00;101125.78;7384122;19;20015;-78
2022/08/17 05:32:36;;;;;;;64.72;37.00;;;;;;;18.47;100.00;101125.78;7386634;19;20464;-79
2022/08/17 05:35:16;;;;;;;62.95;35.53;;;;;;;18.49;100.00;101121.34;7392160;19;20479;-77
2022/08/17 05:37:46;;;;;;;59.35;34.90;;;;;;;18.49;100.00;101126.66;7387255;19;20015;-77
2022/08/17 05:40:17;;;;;;;57.35;33.33;;;;;;;18.50;100.00;101120.44;7387187;19;20010;-77
2022/08/17 05:42:48;;;;;;;59.30;33.30;;;;;;;18.57;100.00;101122.09;7383065;19;20014;-78
2022/08/17 05:45:23;;;;;;;54.72;32.88;;;;;;;18.57;100.00;101131.84;7388163;19;20089;-78
2022/08/17 05:48:16;;;;;;;54.30;32.67;;;;;;;18.57;100.00;101137.16;7387566;19;20339;-78
2022/08/17 05:50:53;;;;;;;55.47;33.03;;;;;;;18.52;100.00;101155.81;7388288;19;20011;-78
2022/08/17 05:53:32;;;;;;;57.88;34.75;;;;;;;18.51;100.00;101175.31;7375357;19;20481;-78
2022/08/17 05:56:14;;;;;;;55.67;35.33;;;;;;;18.50;100.00;101176.22;7380449;19;20010;-79
2022/08/17 05:59:06;;;;;;;54.47;34.70;;;;;;;18.48;100.00;101175.34;7380991;19;20360;-79
2022/08/17 06:01:53;;;;;;;56.85;35.00;;;;;;;18.48;100.00;101174.47;7375593;19;20445;-78
2022/08/17 06:04:35;;;;;;;58.03;34.30;;;;;;;18.50;100.00;101167.38;7378123;19;20014;-79
2022/08/17 06:07:16;;;;;;;61.22;35.97;;;;;;;18.45;100.00;101164.78;7381536;19;20013;-79
2022/08/17 06:09:54;;;;;;;58.47;36.78;;;;;;;18.39;100.00;101169.28;7375126;19;20019;-79
2022/08/17 06:12:45;;;;;;;55.28;33.97;;;;;;;18.41;100.00;101167.50;7377249;19;20013;-79
2022/08/17 06:15:35;;;;;;;58.92;35.10;;;;;;;18.43;100.00;101161.25;7369202;19;20015;-79
2022/08/17 06:18:12;;;;;;;61.67;33.97;;;;;;;18.49;100.00;101155.88;7373253;19;20068;-79
2022/08/17 06:20:53;;;;;;;64.82;34.45;;;;;;;18.58;100.00;101155.72;7377421;19;20113;-80
2022/08/17 06:23:34;;;;;;;60.55;37.50;;;;;;;18.57;100.00;101167.25;7377351;19;20019;-80
2022/08/17 06:26:13;;;;;;;60.15;37.58;;;;;;;18.64;100.00;101161.88;7378067;19;20577;-80
2022/08/17 06:28:49;;;;;;;64.65;37.38;;;;;;;18.63;100.00;101168.09;7378756;19;20011;-79
2022/08/17 06:31:26;;;;;;;58.10;35.75;;;;;;;18.70;100.00;101172.44;7378686;19;20021;-80
2022/08/17 06:34:02;;;;;;;63.33;36.80;;;;;;;18.76;100.00;101169.66;7382451;19;20074;-79
2022/08/17 06:36:48;;;;;;;57.90;34.13;;;;;;;18.74;100.00;101168.78;7386463;19;20035;-81
2022/08/17 06:39:34;;;;;;;57.47;34.45;;;;;;;18.77;100.00;101174.06;7387066;19;20007;-80
2022/08/17 06:42:17;;;;;;;58.13;33.70;;;;;;;18.87;100.00;101184.53;7386994;19;20053;-80
2022/08/17 06:45:12;;;;;;;58.83;34.88;;;;;;;19.00;100.00;101174.59;7383881;19;20016;-80
2022/08/17 06:47:49;;;;;;;56.55;32.53;;;;;;;19.07;100.00;101189.53;7386011;19;20006;-79
2022/08/17 06:50:32;;;;;;;52.88;33.35;;;;;;;19.13;100.00;101189.44;7382173;19;20476;-80
2022/08/17 06:53:16;;;;;;;52.88;29.98;;;;;;;19.20;100.00;101198.19;7376210;19;20011;-80
2022/08/17 06:55:51;;;;;;;51.15;30.65;;;;;;;19.22;100.00;101191.94;7388920;19;20077;-80
2022/08/17 06:58:25;;;;;;;51.13;30.85;;;;;;;19.26;100.00;101196.31;7384658;19;20011;-76
2022/08/17 07:01:00;;;;;;;53.53;29.83;;;;;;;19.29;100.00;101208.66;7383381;19;20015;-76
2022/08/17 07:03:39;;;;;;;53.38;29.98;;;;;;;19.25;100.00;101213.16;7386124;19;20014;-76
2022/08/17 07:06:16;;;;;;;48.70;29.63;;;;;;;19.23;100.00;101220.28;7382531;19;20503;-76
2022/08/17 07:08:54;;;;;;;43.15;27.70;;;;;;;19.26;100.00;101217.56;7380550;19;20018;-78
2022/08/17 07:11:36;;;;;;;48.80;28.42;;;;;;;19.31;100.00;101217.50;7385057;19;20021;-80
2022/08/17 07:14:19;;;;;;;43.72;27.20;;;;;;;19.37;100.00;101211.22;7393352;19;20018;-81
2022/08/17 07:16:52;;;;;;;50.83;28.97;;;;;;;19.35;100.00;101226.31;7398160;19;20027;-80
2022/08/17 07:19:25;;;;;;;43.28;27.08;;;;;;;19.36;100.00;101233.38;7393296;19;20275;-82
2022/08/17 07:22:13;;;;;;;46.45;27.77;;;;;;;19.30;100.00;101247.66;7390291;19;20014;-81
2022/08/17 07:24:48;;;;;;;;;;;;;;;19.30;100.00;101239.69;7390299;19;20432;-79
2022/08/17 07:27:20;;;;;;;39.42;23.80;;;;;;;19.32;100.00;101245.84;7390698;19;19917;-81
2022/08/17 07:29:55;;;;;;;38.08;25.73;;;;;;;19.30;100.00;101246.78;7386942;19;20039;-82
2022/08/17 07:32:31;;;;;;;35.35;23.30;;;;;;;19.35;100.00;101250.25;7386371;19;20014;-79
2022/08/17 07:35:14;;;;;;;46.08;27.55;;;;;;;19.36;100.00;101247.56;7385703;19;20037;-80
2022/08/17 07:37:52;;;;;;;;;;;;;;;19.42;100.00;101241.25;7388863;19;20026;-77
2022/08/17 07:40:35;;;;;;;39.40;23.83;;;;;;;19.47;100.00;101234.09;7380198;19;19917;-78
2022/08/17 07:43:17;;;;;;;40.47;27.57;;;;;;;19.51;100.00;101231.38;7375442;19;20036;-79
2022/08/17 07:49:17;;;;;;;45.70;27.55;;;;;;;19.48;100.00;101231.41;7382345;19;20018;-79
2022/08/17 07:52:00;;;;;;;45.63;27.90;;;;;;;19.45;100.00;101233.22;7381053;19;20368;-78
2022/08/17 07:54:53;;;;;;;45.25;27.75;;;;;;;19.47;100.00;101234.09;7378176;19;20007;-76
2022/08/17 07:57:41;;;;;;;44.88;27.25;;;;;;;19.54;100.00;101241.09;7375714;19;20027;-76
2022/08/17 08:00:22;;;;;;;44.13;26.92;;;;;;;19.63;100.00;101235.59;7372219;19;20605;-77
2022/08/17 08:03:15;;;;;;;44.72;27.73;;;;;;;19.73;100.00;101231.88;7373923;19;20011;-78
2022/08/17 08:05:54;;;;;;;46.55;28.73;;;;;;;19.91;100.00;101226.19;7376475;19;20375;-79
2022/08/17 08:08:32;;;;;;;44.20;27.63;;;;;;;20.12;100.00;101232.00;7375980;19;20085;-77
2022/08/17 08:11:15;;;;;;;43.67;27.52;;;;;;;20.28;100.00;101241.44;7372114;19;20007;-77
2022/08/17 08:13:48;;;;;;;38.88;24.23;;;;;;;20.34;100.00;101240.44;7378522;19;20015;-77
2022/08/17 08:16:28;;;;;;;41.58;26.65;;;;;;;20.20;100.00;101249.59;7373252;19;20328;-76
2022/08/17 08:19:07;;;;;;;36.05;24.42;;;;;;;20.25;100.00;101246.81;7374271;19;20017;-76
2022/08/17 08:21:47;;;;;;;36.22;22.65;;;;;;;20.25;100.00;101262.81;7374676;19;20018;-79
2022/08/17 08:24:40;;;;;;;35.42;23.58;;;;;;;20.24;100.00;101250.41;7373087;19;20052;-77
2022/08/17 08:27:29;;;;;;;29.95;19.52;;;;;;;20.38;100.00;101259.03;7367475;19;20014;-77
2022/08/17 08:30:11;;;;;;;34.10;20.75;;;;;;;20.48;100.00;101249.06;7366266;19;20007;-77
2022/08/17 08:33:16;;;;;;;33.70;21.90;;;;;;;20.62;100.00;101251.41;7370690;19;20359;-77
2022/08/17 08:35:53;;;;;;;26.77;17.92;;;;;;;20.57;100.00;101259.53;7371755;19;20060;-81
2022/08/17 08:38:38;;;;;;;26.60;16.65;;;;;;;20.54;100.00;101263.13;7378396;19;20007;-78
2022/08/17 08:41:24;;;;;;;27.10;18.60;;;;;;;20.45;100.00;101260.66;7380721;19;20117;-76
2022/08/17 08:44:09;;;;;;;28.20;16.65;;;;;;;20.29;100.00;101264.50;7378697;19;20670;-78
2022/08/17 08:46:50;;;;;;;26.58;17.95;;;;;;;20.19;100.00;101273.56;7366263;19;20475;-78
2022/08/17 08:49:52;;;;;;;27.10;17.88;;;;;;;20.15;100.00;101287.84;7377229;19;20018;-76
2022/08/17 08:53:13;;;;;;;31.63;20.17;;;;;;;20.05;100.00;101294.25;7368478;19;20015;-77
2022/08/17 08:55:51;;;;;;;31.25;20.40;;;;;;;20.03;100.00;101296.06;7381718;19;20365;-78
2022/08/17 09:01:22;;;;;;;30.85;19.13;;;;;;;19.91;100.00;101311.38;7381278;19;20022;-76
2022/08/17 09:04:10;;;;;;;31.98;18.98;;;;;;;19.90;100.00;101309.59;7386644;19;20019;-76
2022/08/17 09:07:16;;;;;;;25.45;17.63;;;;;;;19.93;100.00;101312.22;7384255;19;20022;-77
2022/08/17 09:10:00;;;;;;;29.65;19.65;;;;;;;19.92;100.00;101302.47;7384501;19;20019;-77
2022/08/17 09:12:44;;;;;;;29.10;18.52;;;;;;;20.02;100.00;101296.97;7372712;19;20380;-77
2022/08/17 09:15:16;;;;;;;;;;;;;;;20.03;100.00;101293.41;7376912;19;20018;-77
2022/08/17 09:17:57;;;;;;;30.95;19.80;;;;;;;19.91;100.00;101300.72;7382302;19;19918;-77
2022/08/17 09:20:52;;;;;;;34.72;21.85;;;;;;;19.98;100.00;101305.94;7380827;19;20013;-77
2022/08/17 09:23:35;;;;;;;30.92;20.00;;;;;;;19.94;100.00;101321.09;7381241;19;20002;-77
2022/08/17 09:26:13;;;;;;;34.88;20.65;;;;;;;19.92;100.00;101329.09;7381885;19;20038;-76
2022/08/17 09:28:48;;;;;;;32.60;20.48;;;;;;;19.93;100.00;101329.97;7377748;19;20089;-78
2022/08/17 09:31:23;;;;;;;34.00;20.23;;;;;;;19.89;100.00;101337.13;7372135;19;20479;-77
2022/08/17 09:34:04;;;;;;;32.28;21.42;;;;;;;19.74;100.00;101342.75;7372538;19;20042;-76
2022/08/17 09:36:42;;;;;;;31.48;20.80;;;;;;;19.72;100.00;101331.25;7373742;19;20013;-77
2022/08/17 09:39:17;;;;;;;35.47;22.00;;;;;;;19.81;100.00;101325.75;7362165;19;20066;-77
2022/08/17 09:41:53;;;;;;;29.38;19.38;;;;;;;19.77;100.00;101328.47;7372153;19;20042;-77
2022/08/17 09:44:30;;;;;;;31.48;20.30;;;;;;;19.65;100.00;101328.72;7373380;19;20015;-77
2022/08/17 09:47:07;;;;;;;35.65;22.02;;;;;;;19.67;100.00;101325.13;7363824;19;20014;-78
2022/08/17 09:49:48;;;;;;;33.20;20.55;;;;;;;19.71;100.00;101326.81;7372124;19;20009;-78
2022/08/17 09:52:21;;;;;;;37.28;23.23;;;;;;;19.72;100.00;101323.25;7373104;19;20054;-77
2022/08/17 09:54:53;;;;;;;35.38;23.08;;;;;;;19.73;100.00;101319.69;7372660;19;20013;-77
2022/08/17 09:57:39;;;;;;;41.03;23.02;;;;;;;19.74;100.00;101317.91;7369507;19;20074;-78
2022/08/17 10:00:26;;;;;;;37.70;23.90;;;;;;;19.61;100.00;101322.56;7377162;19;20014;-77
2022/08/17 10:03:18;;;;;;;41.22;22.42;;;;;;;19.77;100.00;101324.03;7374300;19;20039;-78
2022/08/17 10:05:56;;;;;;;38.25;23.02;;;;;;;19.67;100.00;101327.78;7371637;19;20074;-78
2022/08/17 10:08:38;;;;;;;34.22;21.30;;;;;;;19.71;100.00;101332.16;7372422;19;20011;-77
2022/08/17 10:11:18;;;;;;;32.55;21.75;;;;;;;19.52;100.00;101336.00;7374650;19;20015;-80
2022/08/17 10:13:55;;;;;;;33.65;21.20;;;;;;;19.58;100.00;101343.91;7372677;19;20368;-78
2022/08/17 10:16:37;;;;;;;35.78;22.13;;;;;;;19.62;100.00;101339.41;7373643;19;20021;-78
2022/08/17 10:19:17;;;;;;;34.40;21.98;;;;;;;19.64;100.00;101333.16;7371931;19;20013;-78
2022/08/17 10:27:56;;;;;;;36.95;23.52;;;;;;;19.80;100.00;101339.94;7371312;19;20026;-76
2022/08/17 10:30:32;;;;;;;37.13;23.33;;;;;;;19.73;100.00;101333.00;7373482;19;20142;-76
2022/08/17 10:33:14;;;;;;;41.13;24.83;;;;;;;19.83;100.00;101337.22;7375040;19;20023;-76
2022/08/17 10:35:51;;;;;;;38.20;25.17;;;;;;;19.88;100.00;101330.06;7378790;19;20268;-76
2022/08/17 10:38:48;;;;;;;36.03;22.98;;;;;;;20.03;100.00;101333.34;7375729;19;20348;-79
2022/08/17 10:41:29;;;;;;;37.58;22.65;;;;;;;20.07;100.00;101327.94;7378314;19;20422;-77
2022/08/17 10:44:07;;;;;;;34.80;22.45;;;;;;;20.33;100.00;101335.44;7371649;19;20174;-77
2022/08/17 10:47:07;;;;;;;34.05;20.67;;;;;;;20.27;100.00;101330.25;7373072;19;20010;-77
2022/08/17 10:49:46;;;;;;;28.40;19.80;;;;;;;20.32;100.00;101332.81;7376789;19;20039;-76
2022/08/17 10:52:48;;;;;;;30.70;19.65;;;;;;;20.41;100.00;101330.88;7371231;19;20011;-77
2022/08/17 10:55:24;;;;;;;26.98;19.15;;;;;;;20.38;100.00;101328.28;7371401;19;20031;-77
2022/08/17 10:58:19;;;;;;;26.23;16.65;;;;;;;20.65;100.00;101331.31;7375556;19;20018;-77
2022/08/17 11:01:11;;;;;;;27.80;17.45;;;;;;;20.75;100.00;101330.22;7377463;19;20003;-77
2022/08/17 11:06:42;;;;;;;;;;;;;;;20.83;100.00;101330.91;7378187;19;20109;-78
2022/08/17 11:09:30;;;;;;;30.08;17.13;;;;;;;20.73;100.00;101318.72;7375219;19;19923;-78
2022/08/17 11:12:29;;;;;;;28.20;18.30;;;;;;;20.81;100.00;101327.38;7374766;19;20015;-78
2022/08/17 11:15:30;;;;;;;27.92;17.92;;;;;;;20.75;100.00;101332.88;7370535;19;20263;-78
2022/08/17 11:18:23;;;;;;;27.58;18.92;;;;;;;20.83;100.00;101329.09;7375604;19;20586;-77
2022/08/17 11:21:16;;;;;;;26.92;18.17;;;;;;;20.85;100.00;101329.06;7372682;19;20369;-78
2022/08/17 11:24:03;;;;;;;32.15;19.13;;;;;;;20.83;100.00;101336.22;7377016;19;20015;-77
2022/08/17 11:26:41;;;;;;;29.88;19.67;;;;;;;20.83;100.00;101338.91;7377728;19;20040;-76
2022/08/17 11:29:23;;;;;;;34.35;20.95;;;;;;;20.79;100.00;101342.56;7380501;19;20451;-79
2022/08/17 11:32:12;;;;;;;32.42;20.08;;;;;;;20.75;100.00;101343.53;7384854;19;20030;-78
2022/08/17 11:34:44;;;;;;;31.02;20.27;;;;;;;20.76;100.00;101346.19;7376806;19;20288;-77
2022/08/17 11:37:38;;;;;;;32.63;20.40;;;;;;;20.75;100.00;101349.75;7376442;19;20894;-74
2022/08/17 11:40:19;;;;;;;30.23;19.52;;;;;;;20.55;100.00;101349.28;7376795;19;20043;-75
2022/08/17 11:43:14;;;;;;;34.78;21.83;;;;;;;20.49;100.00;101352.94;7373681;19;20007;-78
2022/08/17 11:46:16;;;;;;;37.78;22.35;;;;;;;20.46;100.00;101347.66;7373445;19;21722;-76
2022/08/17 11:52:14;;;;;;;41.67;23.67;;;;;;;20.33;100.00;101346.09;7370639;19;20074;-76
2022/08/17 11:54:47;;;;;;;39.20;24.05;;;;;;;20.25;100.00;101342.72;7372626;19;20037;-79
2022/08/17 11:58:00;;;;;;;38.40;23.10;;;;;;;20.24;100.00;101336.50;7372668;19;20011;-77
2022/08/17 12:00:55;;;;;;;38.38;24.20;;;;;;;20.15;100.00;101335.78;7380164;19;20011;-78
2022/08/17 12:03:45;;;;;;;38.58;23.55;;;;;;;20.11;100.00;101340.28;7399495;19;20014;-78
2022/08/17 12:06:45;;;;;;;43.78;25.20;;;;;;;20.11;100.00;101342.09;7394452;19;20238;-80
2022/08/17 12:09:23;;;;;;;40.80;23.95;;;;;;;20.19;100.00;101345.47;7387310;19;20050;-82
2022/08/17 12:12:00;;;;;;;40.28;24.88;;;;;;;20.17;100.00;101339.31;7386940;19;20049;-82
2022/08/17 12:14:47;;;;;;;44.25;27.10;;;;;;;20.11;100.00;101339.41;7387589;19;20023;-79
2022/08/17 12:17:45;;;;;;;46.55;25.88;;;;;;;20.12;100.00;101341.19;7381571;19;20017;-78
2022/08/17 12:20:23;;;;;;;47.97;27.70;;;;;;;20.16;100.00;101334.88;7380414;19;20015;-81
2022/08/17 12:23:02;;;;;;;48.83;28.90;;;;;;;20.15;100.00;101341.13;7380834;19;20007;-78
2022/08/17 12:26:08;;;;;;;51.03;29.65;;;;;;;20.04;100.00;101327.13;7375564;19;20011;-78
2022/08/17 12:29:11;;;;;;;;;;;;;;;;;;;;;